Time;durP1;ratioP1;P1;durP2;ratioP2;P2;SDS_P1;SDS_P2;PMS_P1;PMS_P2;Temp;Humidity;BMP_temperature;BMP_pressure;BME280_temperature;BME280_humidity;BME280_pressure;Samples;Min_cycle;Max_cycle;Signal;HPM_P1;HPM_P2
2023/12/28 00:00:00;;;;;;;5.70;2.67;;;;;;;8.94;100.00;102579.75;2080838;28;20255;-73
2023/12/28 00:01:01;;;;;;;6.50;2.97;;;;;;;8.86;100.00;102566.22;2079560;28;20221;-73
2023/12/28 00:02:02;;;;;;;5.70;2.73;;;;;;;8.83;100.00;102578.00;2079828;28;20200;-72
2023/12/28 00:03:03;;;;;;;4.93;2.83;;;;;;;7.67;100.00;102396.69;2079544;28;20185;-73
2023/12/28 00:04:04;;;;;;;4.30;2.87;;;;;;;8.79;100.00;102574.41;2079683;28;20450;-73
2023/12/28 00:05:04;;;;;;;5.63;2.90;;;;;;;8.84;100.00;102587.91;2079657;28;20200;-73
2023/12/28 00:06:05;;;;;;;4.03;2.43;;;;;;;8.85;100.00;102586.72;2079462;28;20274;-73
2023/12/28 00:07:06;;;;;;;5.40;2.77;;;;;;;8.83;100.00;102584.34;2079060;28;20180;-73
2023/12/28 00:08:06;;;;;;;4.47;3.03;;;;;;;8.19;100.00;102501.63;2080387;28;20521;-73
2023/12/28 00:09:08;;;;;;;8.00;3.43;;;;;;;8.56;100.00;102557.09;2079359;28;20192;-73
2023/12/28 00:10:09;;;;;;;5.70;2.60;;;;;;;8.67;100.00;102583.69;2079354;28;20544;-73
2023/12/28 00:11:09;;;;;;;5.10;2.60;;;;;;;8.68;100.00;102585.31;2079470;28;20588;-73
2023/12/28 00:12:10;;;;;;;3.43;2.33;;;;;;;8.30;100.00;102527.47;2079230;28;20570;-73
2023/12/28 00:13:10;;;;;;;3.97;2.40;;;;;;;8.66;100.00;102586.84;2079437;28;20200;-73
2023/12/28 00:14:11;;;;;;;5.87;3.10;;;;;;;8.62;100.00;102595.06;2077667;28;20188;-73
2023/12/28 00:15:12;;;;;;;4.67;2.40;;;;;;;8.58;100.00;102582.38;2078063;28;20273;-72
2023/12/28 00:16:12;;;;;;;3.87;2.30;;;;;;;8.57;100.00;102586.31;2078046;28;20253;-72
2023/12/28 00:17:13;;;;;;;5.47;2.80;;;;;;;8.18;100.00;102515.78;2078452;28;20717;-73
2023/12/28 00:18:13;;;;;;;4.33;2.70;;;;;;;8.57;100.00;102564.97;2078287;28;20225;-73
2023/12/28 00:19:14;;;;;;;6.57;2.93;;;;;;;7.36;100.00;102382.34;2077578;28;20635;-73
2023/12/28 00:20:14;;;;;;;4.43;2.70;;;;;;;8.60;100.00;102577.25;2078166;28;20672;-73
2023/12/28 00:21:15;;;;;;;4.57;2.80;;;;;;;8.54;100.00;102565.75;2077766;28;20192;-73
2023/12/28 00:22:15;;;;;;;4.37;2.70;;;;;;;8.36;100.00;102539.00;2078379;28;20560;-73
2023/12/28 00:23:16;;;;;;;4.53;3.07;;;;;;;8.57;100.00;102572.50;2078742;28;20195;-73
2023/12/28 00:24:16;;;;;;;5.73;2.70;;;;;;;7.69;100.00;102437.69;2077740;28;20273;-74
2023/12/28 00:25:17;;;;;;;5.27;2.70;;;;;;;8.59;100.00;102587.53;2078657;28;20203;-73
2023/12/28 00:26:21;;;;;;;5.00;2.80;;;;;;;8.54;100.00;102589.81;2078280;28;20187;-73
2023/12/28 00:27:21;;;;;;;4.73;2.93;;;;;;;8.13;100.00;102530.72;2077408;28;20200;-72
2023/12/28 00:28:22;;;;;;;3.90;2.80;;;;;;;8.50;100.00;102602.78;2078008;28;20486;-72
2023/12/28 00:29:22;;;;;;;5.23;2.87;;;;;;;8.47;100.00;102595.22;2078251;28;20200;-73
2023/12/28 00:30:23;;;;;;;3.97;2.80;;;;;;;8.41;100.00;102583.69;2077717;28;20210;-73
2023/12/28 00:31:23;;;;;;;4.23;2.60;;;;;;;8.50;100.00;102600.81;2077969;28;20304;-73
2023/12/28 00:32:24;;;;;;;4.30;2.70;;;;;;;8.50;100.00;102592.53;2078365;28;20195;-73
2023/12/28 00:33:24;;;;;;;4.60;2.70;;;;;;;8.04;100.00;102518.34;2077958;28;20192;-73
2023/12/28 00:34:25;;;;;;;5.60;2.67;;;;;;;8.33;100.00;102570.13;2078602;28;20276;-73
2023/12/28 00:35:25;;;;;;;6.17;3.20;;;;;;;8.46;100.00;102590.88;2079118;28;20220;-73
2023/12/28 00:36:26;;;;;;;5.53;2.83;;;;;;;8.26;100.00;102565.28;2077307;28;20483;-73
2023/12/28 00:37:26;;;;;;;3.97;2.70;;;;;;;7.94;100.00;102544.59;2077159;28;20190;-73
2023/12/28 00:38:26;;;;;;;4.97;2.70;;;;;;;8.40;100.00;102595.91;2077526;28;20540;-72
2023/12/28 00:39:27;;;;;;;5.67;2.47;;;;;;;8.38;100.00;102592.72;2077402;28;20562;-73
2023/12/28 00:40:29;;;;;;;5.23;2.97;;;;;;;8.40;100.00;102604.19;2077120;28;20746;-72
2023/12/28 00:41:30;;;;;;;6.17;2.77;;;;;;;8.38;100.00;102601.03;2077823;28;20290;-73
2023/12/28 00:42:30;;;;;;;5.30;2.80;;;;;;;8.36;100.00;102614.38;2077489;28;20437;-72
2023/12/28 00:43:31;;;;;;;4.33;2.63;;;;;;;8.00;100.00;102545.88;2076552;28;20281;-73
2023/12/28 00:44:31;;;;;;;4.00;2.47;;;;;;;8.23;100.00;102590.91;2077367;28;20191;-73
2023/12/28 00:45:32;;;;;;;4.33;2.83;;;;;;;7.17;100.00;102421.03;2077686;28;20191;-72
2023/12/28 00:46:32;;;;;;;4.00;2.30;;;;;;;8.31;100.00;102614.69;2077085;28;20277;-72
2023/12/28 00:47:33;;;;;;;4.47;2.77;;;;;;;8.11;100.00;102593.78;2077456;28;20241;-73
2023/12/28 00:48:33;;;;;;;3.90;2.70;;;;;;;8.11;100.00;102604.84;2077763;28;20184;-73
2023/12/28 00:49:34;;;;;;;4.40;2.50;;;;;;;7.61;100.00;102541.66;2077904;28;20184;-73
2023/12/28 00:50:34;;;;;;;3.23;2.33;;;;;;;7.77;100.00;102555.31;2077540;28;20199;-73
2023/12/28 00:51:35;;;;;;;4.67;2.53;;;;;;;8.01;100.00;102599.97;2076715;28;20726;-73
2023/12/28 00:52:35;;;;;;;4.23;2.57;;;;;;;8.08;100.00;102622.16;2076727;28;20774;-73
2023/12/28 00:53:36;;;;;;;4.23;2.40;;;;;;;8.06;100.00;102618.19;2076701;28;20197;-73
2023/12/28 00:54:37;;;;;;;4.23;2.50;;;;;;;8.08;100.00;102618.59;2077636;28;20196;-73
2023/12/28 00:55:37;;;;;;;5.80;2.80;;;;;;;8.04;100.00;102624.06;2077705;28;20199;-73
2023/12/28 00:56:38;;;;;;;3.67;2.40;;;;;;;8.05;100.00;102624.88;2077431;28;20185;-73
2023/12/28 00:57:38;;;;;;;3.73;2.47;;;;;;;7.87;100.00;102604.41;2076969;28;20245;-73
2023/12/28 00:58:40;;;;;;;4.33;2.30;;;;;;;7.98;100.00;102631.06;2077498;28;20688;-73
2023/12/28 00:59:40;;;;;;;4.10;2.53;;;;;;;7.96;100.00;102638.09;2077197;28;20340;-73
2023/12/28 01:00:41;;;;;;;5.53;2.90;;;;;;;7.94;100.00;102630.19;2084577;28;20840;-73
2023/12/28 01:01:41;;;;;;;6.23;3.00;;;;;;;7.17;100.00;102512.78;2076829;28;20683;-73
2023/12/28 01:02:43;;;;;;;5.70;3.07;;;;;;;7.92;100.00;102634.47;2077752;28;20691;-73
2023/12/28 01:03:43;;;;;;;5.60;3.07;;;;;;;7.84;100.00;102625.25;2077733;28;20665;-73
2023/12/28 01:04:44;;;;;;;5.10;3.03;;;;;;;7.91;100.00;102635.66;2077828;28;20608;-73
2023/12/28 01:05:47;;;;;;;4.53;2.83;;;;;;;7.91;100.00;102628.16;2077621;28;20203;-73
2023/12/28 01:06:47;;;;;;;4.93;3.07;;;;;;;7.89;100.00;102626.94;2077189;28;20195;-73
2023/12/28 01:07:48;;;;;;;6.87;3.63;;;;;;;7.88;100.00;102622.56;2077926;28;20450;-73
2023/12/28 01:08:48;;;;;;;7.80;3.60;;;;;;;7.80;100.00;102616.09;2076972;28;20286;-73
2023/12/28 01:09:49;;;;;;;6.47;3.47;;;;;;;7.87;100.00;102621.78;2077528;28;20211;-73
2023/12/28 01:10:49;;;;;;;7.27;4.40;;;;;;;7.87;100.00;102624.53;2077634;28;20262;-72
2023/12/28 01:11:50;;;;;;;6.73;3.60;;;;;;;7.61;100.00;102585.78;2077262;28;20185;-72
2023/12/28 01:12:50;;;;;;;5.60;3.77;;;;;;;7.79;100.00;102613.72;2076805;28;20199;-74
2023/12/28 01:13:51;;;;;;;8.93;3.50;;;;;;;7.86;100.00;102622.94;2076895;28;20209;-73
2023/12/28 01:14:52;;;;;;;7.80;3.63;;;;;;;7.83;100.00;102623.66;2076426;28;20282;-73
2023/12/28 01:15:52;;;;;;;5.60;3.00;;;;;;;7.71;100.00;102606.47;2077491;28;20437;-74
2023/12/28 01:16:53;;;;;;;4.37;2.23;;;;;;;7.26;100.00;102529.94;2077478;28;20224;-73
2023/12/28 01:17:53;;;;;;;4.47;2.47;;;;;;;7.67;100.00;102614.69;2077598;28;20205;-73
2023/12/28 01:18:54;;;;;;;5.27;3.27;;;;;;;7.72;100.00;102613.59;2076903;28;20197;-74
2023/12/28 01:19:54;;;;;;;4.93;3.00;;;;;;;7.67;100.00;102620.19;2076879;28;20322;-72
2023/12/28 01:20:55;;;;;;;5.53;2.50;;;;;;;6.98;100.00;102512.00;2076882;28;21353;-73
2023/12/28 01:21:55;;;;;;;5.13;3.00;;;;;;;7.56;100.00;102613.69;2077392;28;20641;-72
2023/12/28 01:22:56;;;;;;;6.80;2.83;;;;;;;7.56;100.00;102633.00;2076811;28;20667;-73
2023/12/28 01:23:57;;;;;;;7.40;3.10;;;;;;;7.49;100.00;102621.78;2077944;28;20188;-73
2023/12/28 01:24:57;;;;;;;5.10;2.73;;;;;;;7.30;100.00;102601.69;2078045;28;20288;-72
2023/12/28 01:25:59;;;;;;;6.03;3.60;;;;;;;6.98;100.00;102556.13;2077374;28;20582;-73
2023/12/28 01:26:59;;;;;;;8.00;3.23;;;;;;;7.35;100.00;102621.53;2076724;28;20198;-73
2023/12/28 01:28:00;;;;;;;6.90;3.70;;;;;;;7.20;100.00;102616.88;2076974;28;20441;-74
2023/12/28 01:29:03;;;;;;;4.97;2.87;;;;;;;7.21;100.00;102623.16;2077634;28;20672;-73
2023/12/28 01:30:04;;;;;;;7.22;3.42;;;;;;;7.12;100.00;102620.63;2076777;28;20219;-72
2023/12/28 01:31:05;;;;;;;5.45;3.55;;;;;;;7.07;100.00;102620.91;2077334;28;20187;-73
2023/12/28 01:32:05;;;;;;;4.17;2.77;;;;;;;6.90;100.00;102595.69;2077631;28;20425;-73
2023/12/28 01:33:06;;;;;;;6.63;3.23;;;;;;;6.97;100.00;102620.69;2077163;28;20190;-73
2023/12/28 01:34:09;;;;;;;6.97;3.90;;;;;;;6.93;100.00;102623.34;2077399;28;20184;-73
2023/12/28 01:35:09;;;;;;;7.13;3.50;;;;;;;6.89;100.00;102624.44;2076285;28;20696;-73
2023/12/28 01:36:20;;;;;;;4.93;2.50;;;;;;;6.78;100.00;102618.69;2079404;28;20181;-73
2023/12/28 01:37:21;;;;;;;4.05;2.83;;;;;;;6.58;100.00;102603.25;2077274;28;20184;-73
2023/12/28 01:38:22;;;;;;;5.15;2.80;;;;;;;6.50;100.00;102598.72;2077345;28;20197;-73
2023/12/28 01:39:22;;;;;;;6.23;3.33;;;;;;;6.61;100.00;102601.75;2078154;28;20200;-73
2023/12/28 01:40:23;;;;;;;3.63;2.47;;;;;;;6.02;100.00;102513.78;2078568;28;20295;-72
2023/12/28 01:41:23;;;;;;;5.07;3.33;;;;;;;5.53;100.00;102451.16;2078396;28;20689;-73
2023/12/28 01:42:24;;;;;;;3.80;2.80;;;;;;;6.52;100.00;102612.13;2078701;28;20189;-73
2023/12/28 01:43:24;;;;;;;7.37;3.47;;;;;;;6.49;100.00;102621.09;2078385;28;20212;-73
2023/12/28 01:44:25;;;;;;;5.63;3.57;;;;;;;6.41;100.00;102609.09;2077450;28;20960;-73
2023/12/28 01:45:25;;;;;;;5.07;2.67;;;;;;;6.46;100.00;102619.06;2076994;28;20705;-73
2023/12/28 01:46:26;;;;;;;6.00;2.77;;;;;;;5.72;100.00;102509.00;2077763;28;20261;-73
2023/12/28 01:47:28;;;;;;;4.43;2.83;;;;;;;6.06;100.00;102560.63;2076906;28;20240;-73
2023/12/28 01:48:29;;;;;;;5.38;3.63;;;;;;;5.90;100.00;102540.56;2077634;28;20228;-72
2023/12/28 01:49:30;;;;;;;4.90;3.13;;;;;;;6.22;100.00;102606.28;2077726;28;20250;-73
2023/12/28 01:50:31;;;;;;;5.85;3.50;;;;;;;6.24;100.00;102614.16;2077796;28;21635;-73
2023/12/28 01:51:33;;;;;;;4.13;2.80;;;;;;;6.27;100.00;102619.78;2077212;28;20217;-73
2023/12/28 01:52:34;;;;;;;6.53;3.80;;;;;;;6.25;100.00;102624.06;2076699;28;20882;-73
2023/12/28 01:53:36;;;;;;;7.38;4.22;;;;;;;6.06;100.00;102590.91;2077651;28;20213;-72
2023/12/28 01:54:38;;;;;;;5.38;3.47;;;;;;;5.32;100.00;102478.09;2077493;28;20216;-73
2023/12/28 01:55:39;;;;;;;7.05;4.07;;;;;;;5.71;100.00;102545.94;2077314;28;20216;-73
2023/12/28 01:56:40;;;;;;;7.77;3.87;;;;;;;6.05;100.00;102606.63;2076543;28;20246;-73
2023/12/28 01:57:41;;;;;;;4.73;3.50;;;;;;;6.11;100.00;102607.16;2077601;28;20201;-73
2023/12/28 01:58:44;;;;;;;5.67;3.57;;;;;;;4.94;100.00;102431.94;2077729;28;20184;-73
2023/12/28 01:59:45;;;;;;;5.13;3.25;;;;;;;5.82;100.00;102571.81;2077524;28;20193;-73
2023/12/28 02:00:46;;;;;;;6.40;3.33;;;;;;;6.16;100.00;102629.72;2078275;28;20639;-72
2023/12/28 02:01:47;;;;;;;6.30;3.50;;;;;;;5.74;100.00;102559.00;2078050;28;20188;-73
2023/12/28 02:02:48;;;;;;;5.47;3.40;;;;;;;6.16;100.00;102626.97;2077548;28;20666;-72
2023/12/28 02:03:49;;;;;;;5.07;3.13;;;;;;;5.86;100.00;102576.25;2076880;28;20190;-73
2023/12/28 02:04:50;;;;;;;5.50;3.20;;;;;;;6.04;100.00;102596.78;2076592;28;20215;-73
2023/12/28 02:05:51;;;;;;;6.37;3.73;;;;;;;5.65;100.00;102555.59;2077599;28;20204;-73
2023/12/28 02:06:56;;;;;;;5.55;3.30;;;;;;;5.77;100.00;102553.59;2077217;28;20292;-73
2023/12/28 02:07:56;;;;;;;8.05;2.97;;;;;;;6.21;100.00;102632.19;2077208;28;20211;-72
2023/12/28 02:08:57;;;;;;;5.93;2.97;;;;;;;6.23;100.00;102631.84;2077301;28;20224;-73
2023/12/28 02:09:57;;;;;;;5.10;3.20;;;;;;;5.81;100.00;102564.69;2077533;28;20209;-73
2023/12/28 02:10:58;;;;;;;4.77;3.13;;;;;;;6.20;100.00;102624.31;2077821;28;20185;-73
2023/12/28 02:11:59;;;;;;;4.60;3.33;;;;;;;5.69;100.00;102556.50;2077487;28;20688;-72
2023/12/28 02:12:59;;;;;;;7.47;4.10;;;;;;;5.60;100.00;102562.13;2077221;28;20192;-73
2023/12/28 02:14:00;;;;;;;6.80;3.90;;;;;;;6.11;100.00;102631.94;2077330;28;20262;-72
2023/12/28 02:15:01;;;;;;;5.03;3.20;;;;;;;4.64;100.00;102407.91;2076951;28;20192;-73
2023/12/28 02:16:07;;;;;;;5.90;3.35;;;;;;;6.08;100.00;102627.94;2077490;28;20309;-73
2023/12/28 02:17:22;;;;;;;5.97;3.85;;;;;;;6.05;100.00;102628.63;2076944;28;20235;-72
2023/12/28 02:18:29;;;;;;;5.10;3.53;;;;;;;5.63;100.00;102569.69;2076624;28;20214;-73
2023/12/28 02:19:41;;;;;;;5.78;3.40;;;;;;;6.03;100.00;102624.66;2076377;28;20569;-73
2023/12/28 02:20:43;;;;;;;7.55;3.60;;;;;;;5.25;100.00;102511.69;2077168;28;20207;-73
2023/12/28 02:21:43;;;;;;;6.35;3.50;;;;;;;5.95;100.00;102626.41;2077189;28;20665;-73
2023/12/28 02:22:46;;;;;;;5.47;2.80;;;;;;;5.96;100.00;102621.72;2077298;28;20196;-73
2023/12/28 02:23:50;;;;;;;3.95;2.78;;;;;;;5.95;100.00;102623.66;2077066;28;20786;-73
2023/12/28 02:24:58;;;;;;;8.55;4.15;;;;;;;5.69;100.00;102584.78;2077850;28;20204;-73
2023/12/28 02:25:58;;;;;;;5.80;3.55;;;;;;;5.65;100.00;102572.09;2077820;28;20199;-73
2023/12/28 02:26:59;;;;;;;4.93;3.20;;;;;;;5.92;100.00;102618.88;2075959;28;20553;-73
2023/12/28 02:27:59;;;;;;;5.10;2.77;;;;;;;5.93;100.00;102614.97;2076716;28;20192;-73
2023/12/28 02:29:00;;;;;;;8.73;3.53;;;;;;;5.48;100.00;102544.94;2076609;28;20197;-73
2023/12/28 02:30:01;;;;;;;5.17;3.20;;;;;;;5.94;100.00;102613.03;2077545;28;20725;-73
2023/12/28 02:31:05;;;;;;;4.43;2.72;;;;;;;5.94;100.00;102613.03;2076994;28;20251;-74
2023/12/28 02:32:09;;;;;;;4.63;3.17;;;;;;;5.92;100.00;102609.81;2077213;28;20203;-73
2023/12/28 02:33:34;;;;;;;7.88;3.25;;;;;;;5.92;100.00;102613.38;2076710;28;20185;-73
2023/12/28 02:34:41;;;;;;;6.55;3.92;;;;;;;5.85;100.00;102602.16;2077036;28;20334;-73
2023/12/28 02:36:09;;;;;;;9.23;3.75;;;;;;;5.92;100.00;102613.38;2076916;28;20193;-72
2023/12/28 02:37:12;;;;;;;5.63;3.63;;;;;;;5.93;100.00;102605.91;2077068;28;20870;-73
2023/12/28 02:38:14;;;;;;;10.38;4.00;;;;;;;5.91;100.00;102619.22;2076888;28;20670;-73
2023/12/28 02:39:16;;;;;;;5.97;3.75;;;;;;;4.75;100.00;102433.72;2076313;28;20682;-73
2023/12/28 02:40:18;;;;;;;5.80;3.53;;;;;;;5.41;100.00;102567.53;2076869;28;20280;-73
2023/12/28 02:41:19;;;;;;;4.18;2.95;;;;;;;5.45;100.00;102557.44;2076634;28;20205;-73
2023/12/28 02:42:19;;;;;;;5.07;2.95;;;;;;;5.85;100.00;102613.16;2076394;28;20189;-73
2023/12/28 02:43:20;;;;;;;5.80;3.33;;;;;;;5.46;100.00;102542.53;2076642;28;20198;-72
2023/12/28 02:44:21;;;;;;;5.93;3.03;;;;;;;5.47;100.00;102537.81;2077600;28;20306;-73
2023/12/28 02:45:21;;;;;;;6.93;3.47;;;;;;;5.61;100.00;102565.69;2076456;28;20193;-73
2023/12/28 02:46:22;;;;;;;4.77;2.67;;;;;;;5.95;100.00;102615.41;2076090;28;20274;-73
2023/12/28 02:47:22;;;;;;;7.53;3.57;;;;;;;5.94;100.00;102624.81;2076415;28;20781;-73
2023/12/28 02:48:23;;;;;;;4.50;2.90;;;;;;;5.96;100.00;102621.72;2076533;28;20193;-72
2023/12/28 02:49:23;;;;;;;6.00;3.37;;;;;;;5.52;100.00;102563.13;2076924;28;20195;-73
2023/12/28 02:50:24;;;;;;;5.27;3.00;;;;;;;5.99;100.00;102621.00;2077021;28;20209;-73
2023/12/28 02:51:25;;;;;;;6.90;2.93;;;;;;;6.01;100.00;102626.97;2076461;28;20276;-73
2023/12/28 02:52:26;;;;;;;9.10;3.15;;;;;;;5.98;100.00;102620.22;2076905;28;20189;-73
2023/12/28 02:53:26;;;;;;;6.17;3.17;;;;;;;6.00;100.00;102628.13;2077231;28;20195;-73
2023/12/28 02:54:27;;;;;;;6.87;3.10;;;;;;;4.44;100.00;102370.44;2076488;28;20696;-73
2023/12/28 02:55:27;;;;;;;4.10;2.70;;;;;;;6.03;100.00;102624.66;2076534;28;20581;-73
2023/12/28 02:56:28;;;;;;;4.57;3.10;;;;;;;5.95;100.00;102615.41;2076837;28;20193;-73
2023/12/28 02:57:28;;;;;;;6.00;3.20;;;;;;;5.94;100.00;102604.78;2076031;28;21015;-73
2023/12/28 02:58:29;;;;;;;7.07;3.67;;;;;;;6.01;100.00;102622.22;2076080;28;20662;-73
2023/12/28 02:59:29;;;;;;;8.13;3.10;;;;;;;6.04;100.00;102615.22;2075997;28;20678;-72
2023/12/28 03:00:30;;;;;;;4.63;2.57;;;;;;;5.99;100.00;102608.03;2076979;28;20185;-72
2023/12/28 03:01:30;;;;;;;4.40;2.47;;;;;;;5.52;100.00;102543.88;2077285;28;20189;-73
2023/12/28 03:02:31;;;;;;;4.07;2.50;;;;;;;5.97;100.00;102615.06;2076997;28;20204;-73
2023/12/28 03:03:31;;;;;;;4.70;2.80;;;;;;;5.96;100.00;102616.22;2076695;28;20571;-72
2023/12/28 03:04:32;;;;;;;6.27;2.60;;;;;;;5.68;100.00;102572.19;2076829;28;20258;-73
2023/12/28 03:05:32;;;;;;;5.27;2.77;;;;;;;5.60;100.00;102559.38;2076966;28;20181;-73
2023/12/28 03:06:33;;;;;;;4.13;2.70;;;;;;;5.86;100.00;102611.22;2076834;28;20589;-73
2023/12/28 03:07:34;;;;;;;5.27;2.90;;;;;;;5.81;100.00;102609.53;2075727;28;20689;-73
2023/12/28 03:08:34;;;;;;;6.97;3.03;;;;;;;5.82;100.00;102613.88;2076011;28;20195;-73
2023/12/28 03:09:38;;;;;;;9.60;3.13;;;;;;;5.23;100.00;102527.72;2068468;28;20190;-72
2023/12/28 03:10:39;;;;;;;5.53;2.65;;;;;;;5.77;100.00;102611.34;2076143;28;20191;-73
2023/12/28 03:11:39;;;;;;;8.68;2.85;;;;;;;5.77;100.00;102605.03;2076830;28;20287;-73
2023/12/28 03:12:40;;;;;;;6.20;2.73;;;;;;;5.73;100.00;102598.63;2077976;28;20647;-74
2023/12/28 03:13:41;;;;;;;6.20;2.97;;;;;;;5.74;100.00;102603.78;2075791;28;20717;-73
2023/12/28 03:14:41;;;;;;;6.47;3.13;;;;;;;5.71;100.00;102609.22;2076229;28;20201;-73
2023/12/28 03:15:42;;;;;;;6.23;3.27;;;;;;;4.91;100.00;102504.06;2076973;28;20224;-73
2023/12/28 03:16:42;;;;;;;6.77;3.83;;;;;;;5.17;100.00;102529.13;2076549;28;20238;-72
2023/12/28 03:17:43;;;;;;;5.73;2.70;;;;;;;5.64;100.00;102617.28;2076616;28;20247;-73
2023/12/28 03:18:43;;;;;;;7.30;3.47;;;;;;;5.59;100.00;102603.78;2077327;28;20192;-73
2023/12/28 03:19:44;;;;;;;9.40;3.60;;;;;;;5.49;100.00;102594.06;2076736;28;20204;-73
2023/12/28 03:20:44;;;;;;;7.07;2.97;;;;;;;5.53;100.00;102610.69;2076058;28;20201;-73
2023/12/28 03:21:45;;;;;;;7.90;3.67;;;;;;;5.50;100.00;102609.44;2076920;28;20224;-72
2023/12/28 03:22:45;;;;;;;6.40;3.33;;;;;;;4.20;100.00;102400.72;2076071;28;20205;-73
2023/12/28 03:23:46;;;;;;;6.10;3.20;;;;;;;5.48;100.00;102606.22;2076120;28;20306;-72
2023/12/28 03:24:46;;;;;;;4.60;2.80;;;;;;;4.99;100.00;102525.09;2076890;28;20299;-73
2023/12/28 03:25:47;;;;;;;4.83;3.10;;;;;;;5.30;100.00;102571.13;2076412;28;20189;-73
2023/12/28 03:26:48;;;;;;;6.73;3.07;;;;;;;4.88;100.00;102526.72;2076883;28;20272;-73
2023/12/28 03:27:48;;;;;;;7.47;3.50;;;;;;;5.41;100.00;102603.28;2077115;28;20200;-73
2023/12/28 03:28:49;;;;;;;8.47;3.27;;;;;;;5.39;100.00;102602.81;2076051;28;20197;-72
2023/12/28 03:29:49;;;;;;;8.20;2.87;;;;;;;5.39;100.00;102605.56;2076632;28;20193;-73
2023/12/28 03:30:50;;;;;;;6.00;2.93;;;;;;;5.33;100.00;102608.94;2076136;28;20286;-73
2023/12/28 03:31:50;;;;;;;4.23;2.73;;;;;;;5.31;100.00;102605.69;2077048;28;20207;-73
2023/12/28 03:32:51;;;;;;;5.67;3.20;;;;;;;4.82;100.00;102539.09;2076288;28;20739;-73
2023/12/28 03:33:51;;;;;;;6.10;3.07;;;;;;;5.22;100.00;102611.34;2076223;28;20577;-73
2023/12/28 03:34:52;;;;;;;5.30;2.87;;;;;;;5.15;100.00;102610.34;2076671;28;20192;-72
2023/12/28 03:35:52;;;;;;;5.77;3.70;;;;;;;5.07;100.00;102612.06;2077443;28;20266;-73
2023/12/28 03:36:53;;;;;;;4.77;3.00;;;;;;;5.14;100.00;102608.75;2077732;28;20197;-73
2023/12/28 03:37:53;;;;;;;3.90;2.93;;;;;;;4.54;100.00;102505.28;2077956;28;20197;-73
2023/12/28 03:38:54;;;;;;;5.83;3.10;;;;;;;5.15;100.00;102604.84;2077317;28;20286;-73
2023/12/28 03:39:54;;;;;;;3.83;2.50;;;;;;;4.52;100.00;102504.03;2077616;28;20724;-73
2023/12/28 03:40:55;;;;;;;5.80;3.20;;;;;;;5.12;100.00;102609.09;2077444;28;20632;-73
2023/12/28 03:41:55;;;;;;;5.47;3.27;;;;;;;4.53;100.00;102520.19;2077274;28;20197;-72
2023/12/28 03:44:15;;;;;;;5.75;3.85;;;;;;;5.14;100.00;102617.00;2077185;28;20572;-73
2023/12/28 03:45:16;;;;;;;5.30;3.47;;;;;;;5.15;100.00;102619.41;2076988;28;20185;-72
2023/12/28 03:46:16;;;;;;;10.17;4.93;;;;;;;4.90;100.00;102584.88;2077559;28;20231;-73
2023/12/28 03:47:17;;;;;;;6.50;4.17;;;;;;;4.81;100.00;102600.69;2075715;28;20197;-72
2023/12/28 03:48:17;;;;;;;5.87;3.77;;;;;;;5.07;100.00;102625.81;2076236;28;20561;-73
2023/12/28 03:49:19;;;;;;;4.23;3.00;;;;;;;5.11;100.00;102614.91;2076737;28;20201;-73
2023/12/28 03:50:19;;;;;;;6.38;3.15;;;;;;;5.12;100.00;102614.59;2077701;28;20217;-72
2023/12/28 03:51:20;;;;;;;8.00;5.10;;;;;;;4.39;100.00;102503.25;2078464;28;20272;-73
2023/12/28 03:52:20;;;;;;;8.27;4.67;;;;;;;4.73;100.00;102568.63;2077714;28;20223;-72
2023/12/28 03:53:21;;;;;;;5.40;3.43;;;;;;;4.98;100.00;102624.34;2077332;28;20189;-72
2023/12/28 03:54:22;;;;;;;5.10;3.20;;;;;;;4.56;100.00;102574.38;2078386;28;20241;-73
2023/12/28 03:55:22;;;;;;;4.87;2.57;;;;;;;4.99;100.00;102628.69;2078845;28;20201;-73
2023/12/28 03:56:27;;;;;;;6.00;3.83;;;;;;;4.32;100.00;102521.47;2078194;28;20200;-74
2023/12/28 03:57:27;;;;;;;5.82;3.15;;;;;;;5.01;100.00;102618.97;2078082;28;20569;-73
2023/12/28 03:58:28;;;;;;;5.47;3.93;;;;;;;4.90;100.00;102603.28;2078710;28;20216;-73
2023/12/28 03:59:28;;;;;;;4.67;3.33;;;;;;;5.06;100.00;102624.22;2078082;28;20263;-73
2023/12/28 04:00:29;;;;;;;6.13;4.27;;;;;;;4.43;100.00;102520.66;2078560;28;20188;-72
2023/12/28 04:01:29;;;;;;;9.87;4.13;;;;;;;4.39;100.00;102513.44;2078601;28;20616;-73
2023/12/28 04:02:31;;;;;;;5.90;3.50;;;;;;;4.77;100.00;102571.50;2085504;28;20727;-72
2023/12/28 04:03:32;;;;;;;8.35;3.70;;;;;;;5.08;100.00;102619.16;2086142;28;20184;-73
2023/12/28 04:04:32;;;;;;;8.63;4.00;;;;;;;5.15;100.00;102622.16;2078681;28;20192;-72
2023/12/28 04:05:33;;;;;;;9.17;4.37;;;;;;;4.94;100.00;102587.72;2078143;28;20203;-73
2023/12/28 04:06:33;;;;;;;6.60;4.00;;;;;;;5.05;100.00;102614.38;2078416;28;20196;-73
2023/12/28 04:07:34;;;;;;;5.00;3.37;;;;;;;5.22;100.00;102635.28;2077759;28;20287;-74
2023/12/28 04:08:34;;;;;;;5.90;3.70;;;;;;;5.02;100.00;102608.78;2078107;28;20208;-73
2023/12/28 04:09:35;;;;;;;7.93;4.60;;;;;;;5.22;100.00;102638.84;2078172;28;20243;-73
2023/12/28 04:10:38;;;;;;;4.63;3.43;;;;;;;5.24;100.00;102644.78;2078547;28;20310;-73
2023/12/28 04:11:39;;;;;;;6.72;4.25;;;;;;;4.88;100.00;102581.66;2078334;28;20188;-73
2023/12/28 04:12:39;;;;;;;7.30;4.03;;;;;;;5.29;100.00;102632.75;2078752;28;20279;-73
2023/12/28 04:13:40;;;;;;;6.83;3.73;;;;;;;4.57;100.00;102534.78;2078079;28;20192;-72
2023/12/28 04:14:40;;;;;;;6.93;4.30;;;;;;;5.28;100.00;102631.16;2077552;28;20195;-72
2023/12/28 04:15:42;;;;;;;7.10;4.60;;;;;;;4.65;100.00;102555.84;2077710;28;20291;-73
2023/12/28 04:16:43;;;;;;;7.85;4.18;;;;;;;4.52;100.00;102509.53;2077915;28;20204;-73
2023/12/28 04:17:44;;;;;;;5.73;3.43;;;;;;;4.69;100.00;102542.22;2077741;28;20207;-73
2023/12/28 04:18:45;;;;;;;6.78;3.67;;;;;;;5.17;100.00;102613.53;2078176;28;20185;-73
2023/12/28 04:19:46;;;;;;;5.90;3.80;;;;;;;4.81;100.00;102556.72;2078108;28;20181;-73
2023/12/28 04:20:46;;;;;;;7.03;4.97;;;;;;;5.21;100.00;102622.69;2078528;28;20546;-73
2023/12/28 04:21:47;;;;;;;6.87;3.70;;;;;;;5.28;100.00;102626.44;2078766;28;20645;-73
2023/12/28 04:22:47;;;;;;;5.13;3.30;;;;;;;5.25;100.00;102624.41;2077938;28;20209;-73
2023/12/28 04:23:48;;;;;;;6.70;4.10;;;;;;;4.49;100.00;102505.53;2078150;28;20193;-73
2023/12/28 04:24:48;;;;;;;8.87;4.47;;;;;;;5.17;100.00;102621.78;2078319;28;20247;-72
2023/12/28 04:25:49;;;;;;;6.20;3.57;;;;;;;5.32;100.00;102640.28;2077342;28;20241;-73
2023/12/28 04:26:49;;;;;;;5.30;3.50;;;;;;;5.30;100.00;102640.66;2076744;28;20195;-73
2023/12/28 04:27:50;;;;;;;7.23;3.43;;;;;;;4.57;100.00;102532.03;2078036;28;20199;-73
2023/12/28 04:28:50;;;;;;;6.63;3.63;;;;;;;4.83;100.00;102570.13;2077263;28;20181;-72
2023/12/28 04:29:51;;;;;;;7.57;3.97;;;;;;;4.11;100.00;102474.13;2078132;28;20268;-74
2023/12/28 04:30:51;;;;;;;7.50;3.93;;;;;;;4.90;100.00;102592.31;2077715;28;20192;-73
2023/12/28 04:31:52;;;;;;;8.20;4.13;;;;;;;5.25;100.00;102646.41;2077688;28;20932;-73
2023/12/28 04:32:52;;;;;;;5.00;3.27;;;;;;;5.22;100.00;102641.59;2077579;28;20692;-73
2023/12/28 04:33:53;;;;;;;7.30;4.27;;;;;;;5.26;100.00;102648.00;2077877;28;20198;-73
2023/12/28 04:34:56;;;;;;;7.87;4.60;;;;;;;5.24;100.00;102644.78;2078208;28;20706;-73
2023/12/28 04:35:57;;;;;;;9.48;5.30;;;;;;;4.26;100.00;102501.66;2077525;28;21496;-73
2023/12/28 04:36:57;;;;;;;6.60;3.80;;;;;;;5.18;100.00;102640.69;2077204;28;20279;-73
2023/12/28 04:37:58;;;;;;;5.23;3.43;;;;;;;4.94;100.00;102606.97;2078539;28;20191;-73
2023/12/28 04:38:58;;;;;;;8.17;3.80;;;;;;;5.19;100.00;102641.47;2077282;28;20200;-72
2023/12/28 04:39:59;;;;;;;5.27;3.20;;;;;;;4.67;100.00;102563.75;2077751;28;20200;-73
2023/12/28 04:41:01;;;;;;;13.20;3.50;;;;;;;4.96;100.00;102616.47;2077665;28;20288;-73
2023/12/28 04:42:02;;;;;;;6.47;3.65;;;;;;;4.82;100.00;102618.75;2077584;28;20203;-73
2023/12/28 04:43:03;;;;;;;8.90;4.93;;;;;;;3.73;100.00;102427.84;2077036;28;20192;-73
2023/12/28 04:44:03;;;;;;;6.10;3.83;;;;;;;5.14;100.00;102644.47;2077735;28;24404;-73
2023/12/28 04:45:05;;;;;;;4.97;3.50;;;;;;;5.14;100.00;102647.22;2077559;28;20216;-73